PGUMPTKK

Guest
Details From PGUM - Guam Intl
To PTKK - Chukk Intl
Flight Number -
Tags decoded
Created
Modified
Stats Distance 551 nm / 1,021 km
Max Altitude 0 ft / 0 m
Waypoints 3
Social Downloads 2
Likes 0
Share VATSIM

Download

Looking for another format? Having issues loading an existing format? Contact us
Advertisement - Login to hide

Notes

Requested: PGUM GUNSS R584 PTKK Unmatched points: R584

Route

PGUM GUNSS PTKK

ID Type Via Altitude Latitude Longitude Leg Dist Tot Dist Heading (true) Name
O PGUM APT - 0 ft / 0 m 13.48387˚ 144.79717˚ - 0 nm - Guam Intl
GUNSS FIX - 0 ft / 0 m 10.73167˚ 148.06500˚ 253 nm 253 nm 130° / 131° -
O PTKK APT - 0 ft / 0 m 7.46189˚ 151.84302˚ 297 nm 551 nm 131° / 132° Chukk Intl

Altitude Profile

Advertisement - Login to hide

Weather


0- 5 10 15 20 25 30 35+ Temperature / ° C

Clouds and Precipitation
Forecast for 2018-05-24 06:00 UTC. Updated 3 hours ago

Ground ~20,000 ft ~40,000 ft Winds

PGUM

Details ICAO PGUM (GUM)
Name Guam Intl
Region USA (Guam, Northern Mariana Islands)
Timezone Pacific/Guam (UTC+10.0)
Stats Elevation 298 ft / 91 m (AMSL)
Location 13.483874° 144.797171°
Runways 2
Magnetic Variation 0.718° E

METAR

PGUM 240754Z 09008KT 10SM CLR 30/25 A2982 RMK AO2 SLP088 T03000250

Decode

TAF

TAF PGUM 240520Z 2406/2512 12008KT P6SM VCSH FEW018 SCT040

Decode

Departure Runways

ID Width Length Bearing (true) Bearing (mag) Surface Threshold Offset Overrun Length
06L 150 ft / 46 m 10,016 ft / 3,053 m 64.81° 64.09° Asphalt 0 ft / 0 m 1,002 ft / 305 m
06R 150 ft / 46 m 10,015 ft / 3,053 m 64.81° 64.09° Asphalt 0 ft / 0 m 400 ft / 122 m
24L 150 ft / 46 m 10,015 ft / 3,053 m 244.82° 244.10° Asphalt 1,004 ft / 306 m 300 ft / 91 m
24R 150 ft / 46 m 10,016 ft / 3,053 m 244.82° 244.10° Asphalt 0 ft / 0 m 450 ft / 137 m

PTKK

Details ICAO PTKK (TKK)
Name Chukk Intl
Region Federated States of Micronesia, Palau
Timezone Pacific/Chuuk (UTC+10.0)
Stats Elevation 11 ft / 3 m (AMSL)
Location 7.461893° 151.843022°
Runways 1
Magnetic Variation 4.037° E

METAR

PTKK 240750Z VRB04KT 15SM FEW014 SCT120 OVC280 29/25 A2973 RMK SLP071 T02910250

Decode

TAF

TAF PTKK 240520Z 2406/2506 05008KT P6SM VCSH FEW016 SCT040 BKN120

Decode

Destination Runways

ID Width Length Bearing (true) Bearing (mag) Surface Threshold Offset Overrun Length
04 151 ft / 46 m 6,019 ft / 1,835 m 45.81° 41.77° Asphalt 0 ft / 0 m 194 ft / 59 m
22 151 ft / 46 m 6,019 ft / 1,835 m 225.81° 221.77° Asphalt 0 ft / 0 m 194 ft / 59 m

Popular Alternatives